Time;durP1;ratioP1;P1;durP2;ratioP2;P2;SDS_P1;SDS_P2;PMS_P1;PMS_P2;Temp;Humidity;BMP_temperature;BMP_pressure;BME280_temperature;BME280_humidity;BME280_pressure;Samples;Min_cycle;Max_cycle;Signal;HPM_P1;HPM_P2
2021/06/25 00:01:33;;;;;;;2.00;1.00;;;19.60;99.90;;;;;;4971661;28;20466;-80
2021/06/25 00:04:01;;;;;;;2.80;0.90;;;19.50;1.00;;;;;;4965287;28;20465;-80
2021/06/25 00:06:30;;;;;;;0.87;0.87;;;19.50;1.00;;;;;;4968669;28;20546;-80
2021/06/25 00:08:59;;;;;;;0.87;0.87;;;19.60;99.90;;;;;;4972217;28;20447;-80
2021/06/25 00:11:27;;;;;;;1.00;1.00;;;19.60;99.90;;;;;;4972994;28;20921;-80
2021/06/25 00:13:56;;;;;;;1.10;1.00;;;19.50;1.00;;;;;;4975845;28;20451;-80
2021/06/25 00:16:24;;;;;;;0.97;0.87;;;19.50;99.90;;;;;;4970492;28;20482;-80
2021/06/25 00:18:52;;;;;;;1.07;1.00;;;19.50;99.90;;;;;;4971556;28;20525;-80
2021/06/25 00:21:21;;;;;;;0.80;0.80;;;19.60;99.90;;;;;;4970485;28;21006;-79
2021/06/25 00:23:49;;;;;;;1.00;0.90;;;19.50;99.90;;;;;;4979789;28;21042;-81
2021/06/25 00:26:18;;;;;;;0.80;0.80;;;19.50;99.90;;;;;;4974903;28;20533;-80
2021/06/25 00:28:46;;;;;;;1.07;0.70;;;19.40;99.90;;;;;;4970898;28;20470;-79
2021/06/25 00:31:15;;;;;;;0.70;0.70;;;19.20;1.00;;;;;;4972668;28;21218;-79
2021/06/25 00:33:44;;;;;;;0.80;0.70;;;19.20;99.90;;;;;;4972690;28;20792;-80
2021/06/25 00:36:12;;;;;;;0.90;0.90;;;19.20;99.90;;;;;;4970533;28;20451;-78
2021/06/25 00:38:40;;;;;;;1.10;0.60;;;19.20;17.90;;;;;;4970510;28;20451;-80
2021/06/25 00:41:08;;;;;;;0.60;0.60;;;19.10;99.90;;;;;;4969223;28;20486;-79
2021/06/25 00:43:40;;;;;;;1.00;0.93;;;19.10;1.00;;;;;;4978874;28;20478;-80
2021/06/25 00:46:08;;;;;;;0.70;0.70;;;19.00;1.00;;;;;;4968577;28;20475;-80
2021/06/25 00:48:37;;;;;;;1.23;0.60;;;19.10;1.00;;;;;;4973051;28;20955;-80
2021/06/25 00:51:05;;;;;;;0.70;0.70;;;19.20;99.90;;;;;;4969996;28;20545;-80
2021/06/25 00:53:34;;;;;;;0.57;0.57;;;19.20;1.00;;;;;;4971873;28;20454;-80
2021/06/25 00:56:02;;;;;;;0.70;0.70;;;19.20;99.90;;;;;;4973855;28;20447;-80
2021/06/25 00:58:30;;;;;;;0.70;0.70;;;19.30;99.90;;;;;;4969341;28;20566;-80
2021/06/25 01:01:00;;;;;;;0.70;0.60;;;19.30;99.90;;;;;;4971137;28;20998;-80
2021/06/25 01:03:29;;;;;;;0.70;0.70;;;19.30;1.00;;;;;;4969226;28;20565;-81
2021/06/25 01:05:57;;;;;;;0.63;0.63;;;19.40;99.90;;;;;;4987124;28;20458;-80
2021/06/25 01:08:26;;;;;;;0.70;0.70;;;19.40;99.90;;;;;;4983812;28;20471;-80
2021/06/25 01:10:55;;;;;;;0.80;0.80;;;19.30;99.90;;;;;;4969494;28;20475;-81
2021/06/25 01:13:25;;;;;;;0.60;0.60;;;19.20;1.00;;;;;;4969328;28;20471;-82
2021/06/25 01:15:53;;;;;;;0.50;0.50;;;19.20;99.90;;;;;;4977710;28;20513;-81
2021/06/25 01:18:23;;;;;;;0.60;0.60;;;19.30;99.90;;;;;;4954333;28;20970;-80
2021/06/25 01:20:52;;;;;;;1.60;0.60;;;19.40;1.00;;;;;;4968837;28;20475;-81
2021/06/25 01:23:21;;;;;;;0.53;0.53;;;19.30;1.00;;;;;;4974111;28;21159;-82
2021/06/25 01:25:49;;;;;;;0.80;0.80;;;19.30;23.70;;;;;;4971076;28;20462;-80
2021/06/25 01:28:17;;;;;;;0.97;0.70;;;19.40;99.90;;;;;;4967800;28;20506;-80
2021/06/25 01:30:48;;;;;;;0.67;0.67;;;19.30;1.00;;;;;;4972591;28;20482;-80
2021/06/25 01:33:18;;;;;;;0.73;0.73;;;19.30;1.00;;;;;;4973622;28;20455;-81
2021/06/25 01:35:47;;;;;;;2.73;0.90;;;19.20;1.00;;;;;;4973423;28;20798;-81
2021/06/25 01:38:16;;;;;;;0.60;0.60;;;19.00;99.90;;;;;;4978488;28;20457;-80
2021/06/25 01:40:45;;;;;;;0.90;0.90;;;19.00;99.90;;;;;;4962072;28;20524;-77
2021/06/25 01:43:14;;;;;;;2.20;0.80;;;19.00;1.00;;;;;;4973758;28;20507;-80
2021/06/25 01:45:43;;;;;;;0.80;0.80;;;19.10;99.90;;;;;;4974064;28;20838;-80
2021/06/25 01:48:12;;;;;;;0.80;0.80;;;19.10;99.90;;;;;;4981562;28;20790;-77
2021/06/25 01:50:42;;;;;;;0.90;0.90;;;19.10;99.90;;;;;;4973658;28;21195;-80
2021/06/25 01:53:13;;;;;;;0.83;0.83;;;19.10;1.00;;;;;;4968442;28;20462;-80
2021/06/25 01:55:42;;;;;;;2.83;1.00;;;19.10;99.90;;;;;;4981329;28;20466;-80
2021/06/25 01:58:15;;;;;;;0.87;0.87;;;19.20;78.00;;;;;;4972939;28;21062;-81
2021/06/25 02:00:45;;;;;;;1.00;0.90;;;19.10;99.90;;;;;;4967970;28;20966;-80
2021/06/25 02:03:14;;;;;;;1.13;1.07;;;19.10;99.90;;;;;;4967996;28;20479;-81
2021/06/25 02:05:42;;;;;;;1.00;0.83;;;19.20;99.90;;;;;;4971042;28;20451;-82
2021/06/25 02:08:10;;;;;;;5.33;1.20;;;19.20;99.90;;;;;;4973078;28;21101;-80
2021/06/25 02:10:38;;;;;;;1.10;1.00;;;19.20;99.30;;;;;;4969926;28;20521;-81
2021/06/25 02:13:09;;;;;;;1.10;1.00;;;19.20;1.00;;;;;;4967396;28;20486;-80
2021/06/25 02:15:39;;;;;;;2.60;1.20;;;19.10;1.00;;;;;;4973114;28;20474;-80
2021/06/25 02:18:07;;;;;;;1.43;1.33;;;19.10;99.90;;;;;;4972748;28;20462;-80
2021/06/25 02:20:35;;;;;;;1.17;1.00;;;19.10;84.80;;;;;;4977557;28;20454;-79
2021/06/25 02:23:08;;;;;;;1.30;1.00;;;19.00;1.00;;;;;;4972411;28;20459;-80
2021/06/25 02:25:36;;;;;;;1.60;0.93;;;19.00;99.90;;;;;;4976450;28;20506;-79
2021/06/25 02:28:04;;;;;;;1.30;1.20;;;19.00;1.00;;;;;;4969329;28;20459;-79
2021/06/25 02:30:33;;;;;;;0.97;0.93;;;19.00;1.00;;;;;;4973226;28;20477;-80
2021/06/25 02:33:03;;;;;;;1.23;1.13;;;19.10;99.90;;;;;;4969087;28;20463;-78
2021/06/25 02:35:31;;;;;;;1.30;1.20;;;19.10;99.90;;;;;;4972355;28;20458;-80
2021/06/25 02:37:59;;;;;;;1.83;1.40;;;19.20;1.00;;;;;;4969022;28;20471;-79
2021/06/25 02:40:28;;;;;;;1.30;1.20;;;19.20;99.90;;;;;;4969421;28;21184;-80
2021/06/25 02:42:57;;;;;;;1.30;1.20;;;19.20;99.90;;;;;;4974132;28;20533;-79
2021/06/25 02:45:25;;;;;;;1.40;1.30;;;19.20;99.90;;;;;;4972778;28;20486;-79
2021/06/25 02:47:53;;;;;;;1.30;1.20;;;19.20;1.00;;;;;;4982394;28;20450;-80
2021/06/25 02:50:23;;;;;;;1.20;1.10;;;19.20;1.00;;;;;;4975187;28;20544;-80
2021/06/25 02:52:51;;;;;;;2.30;0.90;;;19.20;1.00;;;;;;4976584;28;21186;-80
2021/06/25 02:55:20;;;;;;;1.07;0.97;;;19.20;99.90;;;;;;4976194;28;20474;-80
2021/06/25 02:57:48;;;;;;;0.90;0.90;;;19.30;17.80;;;;;;4983826;28;20475;-80
2021/06/25 03:00:18;;;;;;;1.30;0.90;;;19.30;1.00;;;;;;4971107;28;20971;-80
2021/06/25 03:02:46;;;;;;;1.00;0.90;;;19.30;44.30;;;;;;4975438;28;20490;-80
2021/06/25 03:05:16;;;;;;;1.00;0.90;;;19.30;97.50;;;;;;4972470;28;20549;-80
2021/06/25 03:07:46;;;;;;;2.80;1.00;;;19.40;99.90;;;;;;4972276;28;20478;-78
2021/06/25 03:10:15;;;;;;;1.20;1.10;;;19.40;99.90;;;;;;4972977;28;20462;-79
2021/06/25 03:12:43;;;;;;;1.27;1.17;;;19.30;99.90;;;;;;4975914;28;21045;-79
2021/06/25 03:15:12;;;;;;;1.20;1.10;;;19.30;99.90;;;;;;4974033;28;20542;-79
2021/06/25 03:17:40;;;;;;;1.67;1.13;;;19.30;80.20;;;;;;4977500;28;20482;-79
2021/06/25 03:20:09;;;;;;;1.33;1.23;;;19.10;99.90;;;;;;4975428;28;20509;-79
2021/06/25 03:22:38;;;;;;;1.07;0.97;;;19.10;99.90;;;;;;4963359;28;20573;-79
2021/06/25 03:25:09;;;;;;;1.10;1.00;;;19.00;99.90;;;;;;4969924;28;20840;-78
2021/06/25 03:27:38;;;;;;;1.30;1.20;;;19.10;1.00;;;;;;4976873;28;20799;-78
2021/06/25 03:30:09;;;;;;;1.53;1.10;;;19.10;99.90;;;;;;4969649;28;20529;-79
2021/06/25 03:32:38;;;;;;;1.30;1.20;;;19.20;1.00;;;;;;4967997;28;20840;-79
2021/06/25 03:35:08;;;;;;;1.10;1.00;;;19.30;92.80;;;;;;4971209;28;20451;-78
2021/06/25 03:37:37;;;;;;;1.10;1.10;;;19.20;99.90;;;;;;4968623;28;20455;-79
2021/06/25 03:40:09;;;;;;;1.10;1.00;;;19.00;99.90;;;;;;4972048;28;20902;-79
2021/06/25 03:42:43;;;;;;;1.10;1.00;;;19.00;1.00;;;;;;4969807;28;20490;-79
2021/06/25 03:45:14;;;;;;;0.90;0.90;;;19.00;99.90;;;;;;4971193;28;20485;-78
2021/06/25 03:47:43;;;;;;;0.97;0.90;;;19.00;99.90;;;;;;4968512;28;20466;-78
2021/06/25 03:50:12;;;;;;;1.10;0.90;;;19.00;99.90;;;;;;4970259;28;20522;-79
2021/06/25 03:52:41;;;;;;;0.80;0.80;;;19.00;1.00;;;;;;4970452;28;20490;-79
2021/06/25 03:55:11;;;;;;;0.70;0.70;;;18.90;99.90;;;;;;4981883;28;20454;-79
2021/06/25 03:57:40;;;;;;;2.10;0.73;;;18.90;99.90;;;;;;4963459;28;20467;-80
2021/06/25 04:00:12;;;;;;;0.90;0.70;;;18.80;99.90;;;;;;4965869;28;21312;-79
2021/06/25 04:02:41;;;;;;;0.80;0.80;;;18.70;99.90;;;;;;4970447;28;20506;-80
2021/06/25 04:05:11;;;;;;;1.20;1.10;;;18.70;99.90;;;;;;4968105;28;20471;-80
2021/06/25 04:07:41;;;;;;;1.17;1.07;;;18.90;1.00;;;;;;4968376;28;20937;-79
2021/06/25 04:10:13;;;;;;;1.17;1.07;;;18.90;1.00;;;;;;4968959;28;20455;-79
2021/06/25 04:12:42;;;;;;;0.73;0.73;;;19.00;14.40;;;;;;4973644;28;20485;-80
2021/06/25 04:15:10;;;;;;;0.80;0.80;;;19.00;99.90;;;;;;4960225;28;20451;-79
2021/06/25 04:17:38;;;;;;;1.50;1.20;;;19.00;1.00;;;;;;4970391;28;20454;-80
2021/06/25 04:20:08;;;;;;;0.80;0.80;;;19.00;27.30;;;;;;4974849;28;20460;-79
2021/06/25 04:22:36;;;;;;;0.80;0.80;;;18.90;1.00;;;;;;4973782;28;20494;-81
2021/06/25 04:25:05;;;;;;;1.43;0.80;;;18.80;99.90;;;;;;4970291;28;20562;-81
2021/06/25 04:27:35;;;;;;;0.80;0.80;;;18.80;99.90;;;;;;4981455;28;20477;-81
2021/06/25 04:30:05;;;;;;;0.80;0.80;;;18.80;99.90;;;;;;4981740;28;20541;-80
2021/06/25 04:32:33;;;;;;;0.80;0.80;;;18.70;1.00;;;;;;4987951;28;20497;-81
2021/06/25 04:35:02;;;;;;;1.00;1.00;;;18.60;1.00;;;;;;4979947;28;20782;-79
2021/06/25 04:37:30;;;;;;;1.10;1.00;;;18.50;91.60;;;;;;4988278;28;20524;-80
2021/06/25 04:39:58;;;;;;;1.23;1.10;;;18.50;1.00;;;;;;4985990;28;20478;-80
2021/06/25 04:42:26;;;;;;;1.00;0.80;;;18.50;1.00;;;;;;4978441;28;20482;-80
2021/06/25 04:44:56;;;;;;;0.90;0.80;;;18.50;99.90;;;;;;4980967;28;20474;-79
2021/06/25 04:47:25;;;;;;;1.00;0.90;;;18.50;99.90;;;;;;4981547;28;20462;-80
2021/06/25 04:49:54;;;;;;;0.80;0.80;;;18.50;1.00;;;;;;4980472;28;20899;-79
2021/06/25 04:52:22;;;;;;;1.43;0.97;;;18.60;81.10;;;;;;4975871;28;20486;-79
2021/06/25 04:54:50;;;;;;;0.80;0.80;;;18.50;39.10;;;;;;4969516;28;20687;-79
2021/06/25 04:57:18;;;;;;;0.80;0.80;;;18.50;1.00;;;;;;4975686;28;20532;-79
2021/06/25 04:59:46;;;;;;;2.00;0.80;;;18.50;99.90;;;;;;4967997;28;20597;-79
2021/06/25 05:02:16;;;;;;;0.93;0.90;;;18.60;99.90;;;;;;4970274;28;20482;-80
2021/06/25 05:04:44;;;;;;;0.90;0.80;;;18.60;99.90;;;;;;4971475;28;20581;-79
2021/06/25 05:07:12;;;;;;;0.70;0.70;;;18.60;99.90;;;;;;4972704;28;20458;-78
2021/06/25 05:09:40;;;;;;;0.70;0.70;;;18.50;1.00;;;;;;4966682;28;20522;-70
2021/06/25 05:12:09;;;;;;;0.80;0.80;;;18.40;99.90;;;;;;4964657;28;20902;-70
2021/06/25 05:14:37;;;;;;;1.17;0.70;;;18.40;99.90;;;;;;4960880;28;20454;-71
2021/06/25 05:17:06;;;;;;;0.70;0.70;;;18.40;99.90;;;;;;4959124;28;20494;-71
2021/06/25 05:19:35;;;;;;;0.70;0.70;;;18.40;99.90;;;;;;4969416;28;20481;-80
2021/06/25 05:22:04;;;;;;;0.70;0.70;;;18.50;69.90;;;;;;4975562;28;20486;-81
2021/06/25 05:24:32;;;;;;;0.67;0.67;;;18.50;99.90;;;;;;4974438;28;20947;-80
2021/06/25 05:27:00;;;;;;;0.60;0.60;;;18.50;1.00;;;;;;4976102;28;20503;-80
2021/06/25 05:29:28;;;;;;;0.60;0.60;;;18.60;99.90;;;;;;4974317;28;20471;-80
2021/06/25 05:31:59;;;;;;;0.50;0.50;;;18.60;99.90;;;;;;4966598;28;20484;-79
2021/06/25 05:34:27;;;;;;;0.60;0.60;;;18.60;1.00;;;;;;4971848;28;20468;-79
2021/06/25 05:36:57;;;;;;;0.80;0.70;;;18.50;99.90;;;;;;4973589;28;20522;-80
2021/06/25 05:39:25;;;;;;;0.60;0.60;;;18.50;53.30;;;;;;4972787;28;20823;-79
2021/06/25 05:41:53;;;;;;;0.60;0.60;;;18.50;99.90;;;;;;4970395;28;20513;-79
2021/06/25 05:44:21;;;;;;;1.07;0.50;;;18.60;1.00;;;;;;4966423;28;20466;-79
2021/06/25 05:46:49;;;;;;;0.77;0.60;;;18.70;99.90;;;;;;4972598;28;20478;-81
2021/06/25 05:49:18;;;;;;;0.97;0.90;;;18.70;1.00;;;;;;4972737;28;20458;-80
2021/06/25 05:51:46;;;;;;;0.70;0.60;;;18.70;1.00;;;;;;4974117;28;20493;-80
2021/06/25 05:54:15;;;;;;;0.60;0.60;;;18.70;99.90;;;;;;4970069;28;20466;-81
2021/06/25 05:56:43;;;;;;;0.60;0.60;;;18.60;1.00;;;;;;4973413;28;20447;-79
2021/06/25 05:59:11;;;;;;;0.50;0.50;;;18.50;99.90;;;;;;4968572;28;20467;-81
2021/06/25 06:01:39;;;;;;;0.70;0.70;;;18.50;99.90;;;;;;4971721;28;21036;-80
2021/06/25 06:04:08;;;;;;;0.60;0.60;;;18.50;1.00;;;;;;4970335;28;20462;-80
2021/06/25 06:06:36;;;;;;;0.80;0.67;;;18.40;1.00;;;;;;4972253;28;20486;-80
2021/06/25 06:09:05;;;;;;;0.50;0.50;;;18.40;34.10;;;;;;4974316;28;20459;-80
2021/06/25 06:11:34;;;;;;;0.70;0.60;;;18.50;1.00;;;;;;4971559;28;20536;-79
2021/06/25 06:14:02;;;;;;;0.57;0.57;;;18.60;1.00;;;;;;4974069;28;20447;-79
2021/06/25 06:16:30;;;;;;;0.67;0.60;;;18.70;1.00;;;;;;4976364;28;20459;-79
2021/06/25 06:18:59;;;;;;;0.60;0.60;;;18.80;99.90;;;;;;4965014;28;20455;-80
2021/06/25 06:21:27;;;;;;;0.53;0.53;;;18.80;99.90;;;;;;4970875;28;20483;-79
2021/06/25 06:32:18;;;;;;;0.80;0.70;;;18.70;20.80;;;;;;4972058;28;20490;-80
2021/06/25 06:34:47;;;;;;;0.90;0.63;;;18.60;99.90;;;;;;4975603;28;20806;-79
2021/06/25 06:37:20;;;;;;;0.83;0.60;;;18.60;1.00;;;;;;4966425;28;20458;-81
2021/06/25 06:39:48;;;;;;;0.77;0.77;;;18.50;1.00;;;;;;4973248;28;20455;-79
2021/06/25 06:42:18;;;;;;;0.83;0.60;;;18.50;1.00;;;;;;4968261;28;21599;-79
2021/06/25 06:44:46;;;;;;;0.90;0.90;;;18.60;1.00;;;;;;4973484;28;20459;-80
2021/06/25 06:47:15;;;;;;;0.67;0.67;;;18.60;99.90;;;;;;4969598;28;20565;-80
2021/06/25 06:49:43;;;;;;;1.00;1.00;;;18.50;1.00;;;;;;4975563;28;20505;-80
2021/06/25 06:52:11;;;;;;;1.83;0.70;;;18.50;54.90;;;;;;4973534;28;20531;-78
2021/06/25 06:54:40;;;;;;;0.80;0.70;;;18.60;1.00;;;;;;4972170;28;20505;-81
2021/06/25 06:57:08;;;;;;;1.10;0.80;;;18.60;99.90;;;;;;4972639;28;20888;-79
2021/06/25 06:59:38;;;;;;;0.70;0.60;;;18.70;1.00;;;;;;4974549;28;20505;-80
2021/06/25 07:02:06;;;;;;;0.70;0.70;;;18.70;1.00;;;;;;4971001;28;20466;-79
2021/06/25 07:04:40;;;;;;;1.10;0.73;;;18.70;99.90;;;;;;4972318;28;20443;-80
2021/06/25 07:07:09;;;;;;;0.90;0.70;;;18.70;99.90;;;;;;4973626;28;21008;-80
2021/06/25 07:09:38;;;;;;;1.20;0.80;;;18.80;1.00;;;;;;4972866;28;20955;-80
2021/06/25 07:12:07;;;;;;;0.70;0.70;;;18.70;1.00;;;;;;4969987;28;20993;-81
2021/06/25 07:14:36;;;;;;;0.70;0.70;;;18.80;1.00;;;;;;4970362;28;20858;-80
2021/06/25 07:17:05;;;;;;;1.10;0.90;;;18.90;1.00;;;;;;4971901;28;20463;-81
2021/06/25 07:19:33;;;;;;;0.70;0.70;;;19.00;1.00;;;;;;4970474;28;20522;-80
2021/06/25 07:22:01;;;;;;;0.87;0.80;;;19.00;1.00;;;;;;4971908;28;20498;-80
2021/06/25 07:24:29;;;;;;;1.00;0.90;;;19.00;1.00;;;;;;4970564;28;20511;-79
2021/06/25 07:26:57;;;;;;;0.80;0.73;;;19.00;1.00;;;;;;4972206;28;20483;-81
2021/06/25 07:29:26;;;;;;;1.90;1.17;;;19.10;1.00;;;;;;4973363;28;20458;-80
2021/06/25 07:31:55;;;;;;;0.90;0.90;;;19.20;1.00;;;;;;4969516;28;20495;-79
2021/06/25 07:34:23;;;;;;;1.33;0.97;;;19.30;99.90;;;;;;4975274;28;20483;-79
2021/06/25 07:36:52;;;;;;;0.87;0.87;;;19.30;99.90;;;;;;4974667;28;20459;-80
2021/06/25 07:39:20;;;;;;;1.23;0.93;;;19.30;1.00;;;;;;4973743;28;20467;-82
2021/06/25 07:41:48;;;;;;;0.80;0.80;;;19.30;99.90;;;;;;4973651;28;20832;-79
2021/06/25 07:44:17;;;;;;;1.10;1.00;;;19.40;1.00;;;;;;4966615;28;20451;-79
2021/06/25 07:46:45;;;;;;;1.03;0.90;;;19.40;1.00;;;;;;4962859;28;20503;-78
2021/06/25 07:49:15;;;;;;;2.23;1.50;;;19.50;1.00;;;;;;4968215;28;21045;-78
2021/06/25 07:51:45;;;;;;;1.63;1.07;;;19.60;99.90;;;;;;4974524;28;20470;-80
2021/06/25 07:54:13;;;;;;;1.50;1.40;;;19.60;1.00;;;;;;4971127;28;20503;-76
2021/06/25 07:56:41;;;;;;;2.17;1.20;;;19.60;99.90;;;;;;4973310;28;20455;-80
2021/06/25 07:59:09;;;;;;;1.50;1.40;;;19.60;99.90;;;;;;4960826;28;21039;-80
2021/06/25 08:01:38;;;;;;;2.40;1.67;;;19.60;1.00;;;;;;4966201;28;20475;-81
2021/06/25 08:04:07;;;;;;;1.57;1.27;;;19.60;1.00;;;;;;4972843;28;20451;-80
2021/06/25 08:06:37;;;;;;;1.30;1.20;;;19.60;99.90;;;;;;4972206;28;20545;-79
2021/06/25 08:09:07;;;;;;;2.03;1.30;;;19.60;99.90;;;;;;4971221;28;21022;-81
2021/06/25 08:11:36;;;;;;;1.60;1.43;;;19.60;99.90;;;;;;4971738;28;20929;-80
2021/06/25 08:14:06;;;;;;;1.40;1.30;;;19.60;99.90;;;;;;4972779;28;20452;-81
2021/06/25 08:16:34;;;;;;;1.00;1.00;;;19.70;1.00;;;;;;4970759;28;20444;-78
2021/06/25 08:19:03;;;;;;;1.33;1.23;;;19.70;1.00;;;;;;4968124;28;20826;-81
2021/06/25 08:21:32;;;;;;;1.30;1.10;;;19.60;1.00;;;;;;4961328;28;20471;-78
2021/06/25 08:24:02;;;;;;;0.80;0.80;;;19.70;99.90;;;;;;4970363;28;20451;-81
2021/06/25 08:26:30;;;;;;;1.00;0.90;;;19.70;99.90;;;;;;4973253;28;20836;-80
2021/06/25 08:28:58;;;;;;;0.90;0.90;;;19.70;83.40;;;;;;4969220;28;20509;-80
2021/06/25 08:31:26;;;;;;;0.87;0.80;;;19.70;99.90;;;;;;4972761;28;20541;-79
2021/06/25 08:33:58;;;;;;;0.87;0.87;;;19.70;99.90;;;;;;4971077;28;20506;-80
2021/06/25 08:36:28;;;;;;;1.60;0.87;;;19.70;1.00;;;;;;4972948;28;20513;-80
2021/06/25 08:38:56;;;;;;;0.60;0.60;;;19.60;1.00;;;;;;4968766;28;20459;-78
2021/06/25 08:41:26;;;;;;;0.83;0.73;;;19.60;99.90;;;;;;4970190;28;20487;-81
2021/06/25 08:43:54;;;;;;;1.20;0.83;;;19.60;99.90;;;;;;4969277;28;20513;-81
2021/06/25 08:46:24;;;;;;;2.10;0.73;;;19.50;99.90;;;;;;4971301;28;20454;-81
2021/06/25 08:48:54;;;;;;;0.90;0.90;;;19.60;1.00;;;;;;4967713;28;20855;-79
2021/06/25 08:51:22;;;;;;;1.13;1.03;;;19.60;38.70;;;;;;4971324;28;20949;-80
2021/06/25 08:53:50;;;;;;;1.00;0.90;;;19.60;1.00;;;;;;4970060;28;20463;-82
2021/06/25 08:56:18;;;;;;;1.00;1.00;;;19.60;99.90;;;;;;4971151;28;20451;-81
2021/06/25 08:58:48;;;;;;;1.40;0.80;;;19.60;99.90;;;;;;4969943;28;20494;-80
2021/06/25 09:01:18;;;;;;;1.13;0.90;;;19.70;1.00;;;;;;4971503;28;20471;-80
2021/06/25 09:03:52;;;;;;;2.00;1.00;;;19.70;99.90;;;;;;4971803;28;20455;-81
2021/06/25 09:06:21;;;;;;;1.27;0.90;;;19.70;71.60;;;;;;4971076;28;20819;-80
2021/06/25 09:08:49;;;;;;;2.80;1.20;;;19.80;1.00;;;;;;4969979;28;20912;-81
2021/06/25 09:11:21;;;;;;;1.20;1.10;;;19.70;1.00;;;;;;4970657;28;20549;-80
2021/06/25 09:13:57;;;;;;;0.80;0.80;;;19.70;36.30;;;;;;4968545;28;20459;-79
2021/06/25 09:16:27;;;;;;;1.17;1.07;;;19.70;1.00;;;;;;4966998;28;20462;-79
2021/06/25 09:19:02;;;;;;;0.90;0.90;;;19.70;99.90;;;;;;4970444;28;20443;-80
2021/06/25 09:21:32;;;;;;;1.07;0.97;;;19.80;99.90;;;;;;4967162;28;20506;-80
2021/06/25 09:24:16;;;;;;;1.50;1.30;;;19.70;1.00;;;;;;4970183;28;20447;-77
2021/06/25 09:26:44;;;;;;;1.20;1.10;;;19.70;1.00;;;;;;4969336;28;20505;-80
2021/06/25 09:29:20;;;;;;;1.40;1.30;;;19.70;99.90;;;;;;4970249;28;20452;-79
2021/06/25 09:31:58;;;;;;;1.47;1.37;;;19.70;1.00;;;;;;4970069;28;20493;-80
2021/06/25 09:34:41;;;;;;;1.90;1.73;;;19.60;99.90;;;;;;4963266;28;20466;-80
2021/06/25 09:37:12;;;;;;;1.57;1.43;;;19.70;1.00;;;;;;4969360;28;20467;-81
2021/06/25 09:39:42;;;;;;;1.80;1.40;;;19.70;99.90;;;;;;4970221;28;20454;-77
2021/06/25 09:42:17;;;;;;;1.23;1.13;;;19.70;99.90;;;;;;4967581;28;20483;-81
2021/06/25 09:45:03;;;;;;;1.83;1.60;;;19.70;1.00;;;;;;4966378;28;20824;-81
2021/06/25 09:47:33;;;;;;;1.70;1.60;;;19.70;1.00;;;;;;4977147;28;20482;-81
2021/06/25 09:50:06;;;;;;;1.70;1.60;;;19.70;99.90;;;;;;4969150;28;20447;-83
2021/06/25 09:52:55;;;;;;;1.77;1.67;;;19.80;99.90;;;;;;4973224;28;20475;-81
2021/06/25 09:55:26;;;;;;;1.63;1.53;;;19.70;1.00;;;;;;4972770;28;20513;-80
2021/06/25 09:58:16;;;;;;;1.60;1.50;;;19.70;99.90;;;;;;4973109;28;20462;-80
2021/06/25 10:03:37;;;;;;;1.57;1.47;;;19.70;99.90;;;;;;4973877;28;20474;-81
2021/06/25 10:06:16;;;;;;;3.60;1.80;;;19.70;99.90;;;;;;4971394;28;20840;-79
2021/06/25 10:08:45;;;;;;;2.90;1.93;;;19.70;99.90;;;;;;4967496;28;20486;-81
2021/06/25 10:11:15;;;;;;;2.20;2.10;;;19.70;99.90;;;;;;4972340;28;20474;-81
2021/06/25 10:13:44;;;;;;;1.73;1.63;;;19.70;1.00;;;;;;4973782;28;20459;-80
2021/06/25 10:16:16;;;;;;;2.60;2.17;;;19.80;99.90;;;;;;4971207;28;20462;-80
2021/06/25 10:18:48;;;;;;;2.03;1.93;;;19.80;99.90;;;;;;4964801;28;20456;-81
2021/06/25 10:21:18;;;;;;;2.93;2.73;;;19.80;1.00;;;;;;4971927;28;20488;-81
2021/06/25 10:23:48;;;;;;;2.10;1.90;;;19.80;99.90;;;;;;4974598;28;20478;-81
2021/06/25 10:26:18;;;;;;;1.70;1.60;;;19.80;45.70;;;;;;4976275;28;20523;-80
2021/06/25 10:28:47;;;;;;;2.27;2.07;;;19.80;34.20;;;;;;4971549;28;21419;-81
2021/06/25 10:31:20;;;;;;;2.30;2.03;;;19.80;1.00;;;;;;4970475;28;20578;-80
2021/06/25 10:33:49;;;;;;;3.40;2.83;;;19.80;1.00;;;;;;4975235;28;20509;-81
2021/06/25 10:36:22;;;;;;;2.17;1.97;;;20.00;99.90;;;;;;4975107;28;20510;-81
2021/06/25 10:38:52;;;;;;;2.47;2.27;;;19.80;99.90;;;;;;4971586;28;20443;-82
2021/06/25 10:41:22;;;;;;;2.37;2.27;;;19.80;99.90;;;;;;4972673;28;20475;-82
2021/06/25 10:43:52;;;;;;;2.23;1.70;;;19.80;99.90;;;;;;4970600;28;20451;-80
2021/06/25 10:46:36;;;;;;;2.00;1.90;;;19.90;1.00;;;;;;4973411;28;20486;-81
2021/06/25 10:49:13;;;;;;;2.70;2.50;;;19.90;1.00;;;;;;4967684;28;20482;-80
2021/06/25 10:51:43;;;;;;;5.60;2.63;;;19.90;1.00;;;;;;4976586;28;20998;-80
2021/06/25 10:54:16;;;;;;;2.43;2.23;;;19.90;1.00;;;;;;4973612;28;20538;-82
2021/06/25 10:57:07;;;;;;;2.10;1.90;;;19.90;1.00;;;;;;4974624;28;20914;-79
2021/06/25 10:59:44;;;;;;;2.40;2.20;;;19.90;99.90;;;;;;4974651;28;20530;-79
2021/06/25 11:02:14;;;;;;;2.07;1.90;;;19.90;1.00;;;;;;4973344;28;20478;-79
2021/06/25 11:04:43;;;;;;;3.37;2.30;;;19.90;99.90;;;;;;4971481;28;20455;-79
2021/06/25 11:07:14;;;;;;;2.30;2.10;;;19.90;99.90;;;;;;4969181;28;20538;-80
2021/06/25 11:10:00;;;;;;;3.33;2.40;;;20.00;99.90;;;;;;4967083;28;20577;-80
2021/06/25 11:12:30;;;;;;;3.37;2.70;;;20.00;99.90;;;;;;4971073;28;20529;-80
2021/06/25 11:15:30;;;;;;;3.27;2.97;;;20.00;99.90;;;;;;4971315;28;20443;-79
2021/06/25 11:18:07;;;;;;;4.10;2.87;;;20.00;16.20;;;;;;4966371;28;20458;-80
2021/06/25 11:20:38;;;;;;;3.20;3.00;;;20.00;22.60;;;;;;4965746;28;20968;-81
2021/06/25 11:23:09;;;;;;;3.80;3.03;;;20.00;99.90;;;;;;4969731;28;20964;-81
2021/06/25 11:25:47;;;;;;;4.03;3.10;;;20.10;99.90;;;;;;4970590;28;20451;-80
2021/06/25 11:28:21;;;;;;;3.60;3.17;;;20.10;99.90;;;;;;4961772;28;20483;-80
2021/06/25 11:31:02;;;;;;;4.00;3.60;;;20.10;99.90;;;;;;4970899;28;20577;-80
2021/06/25 11:33:39;;;;;;;3.50;3.17;;;20.10;1.00;;;;;;4968564;28;20514;-77
2021/06/25 11:36:47;;;;;;;3.17;2.80;;;20.20;54.90;;;;;;4971691;28;20447;-77
2021/06/25 11:39:28;;;;;;;2.97;2.60;;;20.20;1.00;;;;;;4969628;28;20498;-78
2021/06/25 11:41:59;;;;;;;3.57;2.97;;;20.10;1.00;;;;;;4962273;28;20837;-80
2021/06/25 11:44:29;;;;;;;2.20;2.00;;;20.10;1.00;;;;;;4970124;28;20860;-80
2021/06/25 11:47:03;;;;;;;2.70;2.50;;;20.20;1.00;;;;;;4972475;28;20461;-79
2021/06/25 11:49:37;;;;;;;2.53;1.87;;;20.20;1.00;;;;;;4970700;28;20470;-80
2021/06/25 11:52:08;;;;;;;2.60;2.40;;;20.20;1.00;;;;;;4969055;28;21012;-79
2021/06/25 11:54:37;;;;;;;2.27;2.03;;;20.20;1.00;;;;;;4971470;28;20455;-80
2021/06/25 11:57:15;;;;;;;1.40;1.30;;;20.20;1.00;;;;;;4970869;28;20494;-80
2021/06/25 12:00:02;;;;;;;1.80;1.40;;;20.20;1.00;;;;;;4969231;28;20840;-82
2021/06/25 12:02:41;;;;;;;2.10;1.90;;;20.20;1.00;;;;;;4967639;28;20479;-79
2021/06/25 12:05:12;;;;;;;1.97;1.77;;;20.20;1.00;;;;;;4966025;28;20464;-80
2021/06/25 12:07:40;;;;;;;1.60;1.50;;;20.30;1.00;;;;;;4964278;28;20514;-80
2021/06/25 12:10:09;;;;;;;1.40;1.30;;;20.20;1.00;;;;;;4968853;28;20475;-79
2021/06/25 12:12:40;;;;;;;1.77;1.57;;;20.30;99.90;;;;;;4968490;28;21100;-81
2021/06/25 12:15:10;;;;;;;2.70;1.37;;;20.30;99.90;;;;;;4964708;28;21015;-80
2021/06/25 12:17:45;;;;;;;1.73;1.57;;;20.30;99.90;;;;;;4968718;28;20443;-80
2021/06/25 12:20:19;;;;;;;2.40;1.57;;;20.30;99.90;;;;;;4969533;28;20465;-79
2021/06/25 12:22:54;;;;;;;1.70;1.60;;;20.30;99.90;;;;;;4970796;28;20478;-79
2021/06/25 12:25:31;;;;;;;1.70;1.60;;;20.40;99.90;;;;;;4969717;28;20497;-78
2021/06/25 12:28:00;;;;;;;1.60;1.50;;;20.40;99.90;;;;;;4970611;28;20945;-79
2021/06/25 12:30:28;;;;;;;1.50;1.40;;;20.40;99.90;;;;;;4967608;28;20494;-78
2021/06/25 12:33:02;;;;;;;1.63;1.53;;;20.40;99.90;;;;;;4970300;28;20455;-79
2021/06/25 12:35:33;;;;;;;1.90;1.80;;;20.50;99.90;;;;;;4968766;28;20462;-77
2021/06/25 12:38:04;;;;;;;1.70;1.60;;;20.50;1.00;;;;;;4968434;28;20455;-79
2021/06/25 12:40:54;;;;;;;2.60;1.60;;;20.60;1.00;;;;;;4969777;28;20442;-81
2021/06/25 12:43:27;;;;;;;2.60;2.40;;;20.60;1.00;;;;;;4967833;28;20466;-76
2021/06/25 12:45:58;;;;;;;1.83;1.40;;;20.70;1.00;;;;;;4967903;28;20455;-79
2021/06/25 12:48:31;;;;;;;1.83;1.63;;;20.70;1.00;;;;;;4966644;28;20609;-79
2021/06/25 12:51:02;;;;;;;2.00;1.90;;;20.70;99.90;;;;;;4967097;28;20534;-78
2021/06/25 12:53:32;;;;;;;2.43;1.67;;;20.80;99.90;;;;;;4967229;28;20504;-78
2021/06/25 12:56:02;;;;;;;2.17;1.97;;;20.80;99.90;;;;;;4966925;28;20936;-78
2021/06/25 12:58:32;;;;;;;2.50;1.83;;;20.80;99.90;;;;;;4968836;28;20448;-79
2021/06/25 13:01:04;;;;;;;2.03;1.80;;;20.80;99.90;;;;;;4967881;28;20518;-80
2021/06/25 13:03:37;;;;;;;2.50;2.30;;;20.80;99.90;;;;;;4967793;28;20457;-80
2021/06/25 13:06:27;;;;;;;3.00;1.73;;;20.70;99.90;;;;;;4967814;28;20551;-82
2021/06/25 13:08:56;;;;;;;1.80;1.40;;;20.60;99.90;;;;;;4970926;28;20455;-82
2021/06/25 13:11:26;;;;;;;1.80;1.30;;;20.60;99.90;;;;;;4971274;28;21061;-81
2021/06/25 13:13:54;;;;;;;1.27;1.17;;;20.60;99.90;;;;;;4969379;28;20467;-81
2021/06/25 13:16:25;;;;;;;1.87;1.30;;;20.60;99.90;;;;;;4971012;28;20490;-82
2021/06/25 13:18:56;;;;;;;4.10;1.33;;;20.60;99.90;;;;;;4982147;28;20510;-80